This is the latest recevied weather packets stored in our database for station/object LKKV. If no packets are shown the sender has not sent any weather packets the latest 10 day(s).
| Time | Temp. | Humidity | Pressure | Rain* | Wind** | Luminosity | Snow |
|---|---|---|---|---|---|---|---|
| 1788293881 | 10.56° C | 87% | 1022 hPa | - | - | - | - |
| 1788292981 | 10.56° C | 87% | 1022 hPa | - | - | - | - |
| 1788292083 | 12.78° C | 71% | 1021 hPa | - | - | - | - |
| 1788291182 | 12.78° C | 71% | 1021 hPa | - | - | - | - |
| 1788290283 | 12.78° C | 71% | 1021 hPa | - | - | - | - |
| 1788289382 | 12.78° C | 71% | 1021 hPa | - | - | - | - |
| 1788288483 | 15° C | 62% | 1021 hPa | - | - | - | - |
| 1788287582 | 15° C | 62% | 1021 hPa | - | - | - | - |
| 1788286683 | 16.67° C | 59% | 1021 hPa | - | - | - | - |
| 1788285782 | 16.67° C | 59% | 1021 hPa | - | - | - | - |
| 1788284882 | 17.78° C | 55% | 1021 hPa | - | - | - | - |
| 1788283982 | 17.78° C | 55% | 1021 hPa | - | - | - | - |
| 1788283082 | 20° C | 45% | 1021 hPa | - | - | - | - |
| 1788282181 | 20° C | 45% | 1021 hPa | - | - | - | - |
| 1788281282 | 20° C | 49% | 1021 hPa | - | - | - | - |
| 1788280381 | 20° C | 49% | 1021 hPa | - | - | - | - |
| 1788279482 | 20° C | 49% | 1021 hPa | - | - | - | - |
| 1788278581 | 20° C | 49% | 1021 hPa | - | - | - | - |
| 1788277682 | 20.56° C | 46% | 1021 hPa | - | - | - | - |
| 1788276781 | 20.56° C | 46% | 1021 hPa | - | - | - | - |
| 1788275882 | 20.56° C | 46% | 1021 hPa | - | - | - | - |
| 1788274981 | 20.56° C | 46% | 1021 hPa | - | - | - | - |
| 1788274082 | 20.56° C | 43% | 1021 hPa | - | - | - | - |
| 1788273182 | 20.56° C | 43% | 1021 hPa | - | - | - | - |
| 1788272283 | 20° C | 49% | 1021 hPa | - | - | - | - |
* Rain since midnight (hover to see other rain measurements)
** Current wind speed in m/s (hover to see current wind gust speed)